Time;durP1;ratioP1;P1;durP2;ratioP2;P2;SDS_P1;SDS_P2;PMS_P1;PMS_P2;Temp;Humidity;BMP_temperature;BMP_pressure;BME280_temperature;BME280_humidity;BME280_pressure;Samples;Min_cycle;Max_cycle;Signal;HPM_P1;HPM_P2
2021/03/10 00:01:17;;;;;;;3.93;3.50;;;-4.40;99.90;;;;;;4786924;29;20451;-78
2021/03/10 00:03:42;;;;;;;4.57;3.40;;;-4.50;99.90;;;;;;4787539;29;20437;-78
2021/03/10 00:06:08;;;;;;;4.32;3.33;;;-4.40;99.90;;;;;;4781529;29;20449;-78
2021/03/10 00:08:34;;;;;;;4.22;3.60;;;-4.50;99.90;;;;;;4790463;29;20426;-78
2021/03/10 00:10:59;;;;;;;4.68;3.75;;;-4.50;99.90;;;;;;4792878;29;20419;-77
2021/03/10 00:13:25;;;;;;;4.63;3.88;;;-4.50;99.90;;;;;;4788671;29;20422;-77
2021/03/10 00:15:51;;;;;;;4.50;3.73;;;-4.50;99.90;;;;;;4792880;29;20453;-78
2021/03/10 00:18:17;;;;;;;4.97;3.77;;;-4.50;99.90;;;;;;4790356;29;20452;-78
2021/03/10 00:20:42;;;;;;;3.97;3.35;;;-4.50;99.90;;;;;;4792331;29;20518;-77
2021/03/10 00:23:08;;;;;;;6.03;4.28;;;-4.60;99.90;;;;;;4777957;29;20418;-77
2021/03/10 00:25:34;;;;;;;7.85;4.00;;;-4.60;99.90;;;;;;4760824;29;21011;-77
2021/03/10 00:27:59;;;;;;;6.17;4.00;;;-4.70;99.90;;;;;;4805478;29;20437;-77
2021/03/10 00:30:25;;;;;;;5.33;4.37;;;-4.70;99.90;;;;;;4787950;29;20478;-77
2021/03/10 00:32:51;;;;;;;5.30;4.00;;;-4.70;99.90;;;;;;4795827;29;20406;-77
2021/03/10 00:35:17;;;;;;;5.50;4.10;;;-4.80;99.90;;;;;;4782725;29;20427;-78
2021/03/10 00:37:42;;;;;;;6.32;4.38;;;-4.80;99.90;;;;;;4801716;29;20426;-78
2021/03/10 00:40:08;;;;;;;6.30;4.45;;;-4.90;99.90;;;;;;4794069;29;20433;-78
2021/03/10 00:42:34;;;;;;;6.38;4.30;;;-4.90;99.90;;;;;;4787438;29;20427;-78
2021/03/10 00:45:00;;;;;;;5.53;4.67;;;-4.90;99.90;;;;;;4791125;29;20421;-78
2021/03/10 00:47:25;;;;;;;5.53;4.37;;;-4.90;99.90;;;;;;4790603;29;20997;-78
2021/03/10 00:49:51;;;;;;;7.70;5.20;;;-5.00;99.90;;;;;;4778770;29;20422;-78
2021/03/10 00:52:17;;;;;;;7.63;4.95;;;-5.00;99.90;;;;;;4795089;29;20463;-78
2021/03/10 00:54:43;;;;;;;5.90;4.40;;;-5.00;99.90;;;;;;4785610;29;20495;-78
2021/03/10 00:57:08;;;;;;;6.78;4.95;;;-5.00;99.90;;;;;;4774517;29;20484;-78
2021/03/10 00:59:34;;;;;;;7.30;5.03;;;-5.10;99.90;;;;;;4785380;29;20447;-78
2021/03/10 01:02:00;;;;;;;6.38;4.82;;;-5.00;99.90;;;;;;4784206;29;20428;-78
2021/03/10 01:04:26;;;;;;;8.00;5.00;;;-5.10;99.90;;;;;;4780904;29;20421;-77
2021/03/10 01:06:51;;;;;;;6.67;5.30;;;-5.10;99.90;;;;;;4772047;29;20773;-78
2021/03/10 01:09:18;;;;;;;6.73;5.00;;;-5.10;99.90;;;;;;4797029;29;20506;-78
2021/03/10 01:11:44;;;;;;;8.25;5.20;;;-5.20;99.90;;;;;;4780811;29;20440;-79
2021/03/10 01:14:09;;;;;;;7.57;5.45;;;-5.00;99.90;;;;;;4785404;29;20424;-77
2021/03/10 01:16:35;;;;;;;6.40;5.10;;;-5.20;99.90;;;;;;4783298;29;20552;-78
2021/03/10 01:19:01;;;;;;;7.10;5.80;;;-5.10;99.90;;;;;;4779673;29;20839;-77
2021/03/10 01:21:27;;;;;;;9.30;5.63;;;-5.20;99.90;;;;;;4801119;29;20443;-77
2021/03/10 01:23:52;;;;;;;8.10;5.33;;;-5.10;99.90;;;;;;4780335;29;20765;-78
2021/03/10 01:26:18;;;;;;;8.10;5.40;;;-5.30;99.90;;;;;;4789798;29;20409;-78
2021/03/10 01:28:44;;;;;;;6.78;5.30;;;-5.30;99.90;;;;;;4771636;29;20469;-77
2021/03/10 01:31:10;;;;;;;7.20;5.80;;;-5.40;99.90;;;;;;4786608;29;20426;-78
2021/03/10 01:33:35;;;;;;;7.28;5.28;;;-5.40;99.90;;;;;;4790422;29;20439;-77
2021/03/10 01:36:03;;;;;;;8.52;5.70;;;-5.40;99.90;;;;;;4774012;29;20423;-78
2021/03/10 01:38:29;;;;;;;8.07;5.75;;;-5.40;99.90;;;;;;4784404;29;20430;-76
2021/03/10 01:40:54;;;;;;;8.20;5.63;;;-5.50;99.90;;;;;;4790325;29;20452;-78
2021/03/10 01:43:20;;;;;;;9.65;5.45;;;-5.50;99.90;;;;;;4771704;29;20424;-77
2021/03/10 01:45:47;;;;;;;7.40;5.63;;;-5.60;99.90;;;;;;4790223;29;20432;-78
2021/03/10 01:48:13;;;;;;;6.40;5.13;;;-5.60;99.90;;;;;;4798417;29;20852;-78
2021/03/10 01:50:38;;;;;;;7.30;5.32;;;-5.60;99.90;;;;;;4797251;29;20445;-78
2021/03/10 01:53:04;;;;;;;8.38;5.93;;;-5.40;99.90;;;;;;4785552;29;20426;-78
2021/03/10 01:55:30;;;;;;;7.30;5.05;;;-5.50;99.90;;;;;;4794650;29;20494;-78
2021/03/10 01:57:56;;;;;;;7.25;5.38;;;-5.60;99.90;;;;;;4788060;29;20411;-78
2021/03/10 02:00:24;;;;;;;6.60;5.05;;;-5.60;99.90;;;;;;4780178;29;20420;-77
2021/03/10 02:02:50;;;;;;;6.68;5.20;;;-5.60;99.90;;;;;;4772732;29;20892;-78
2021/03/10 02:05:19;;;;;;;7.82;5.30;;;-5.60;99.90;;;;;;4793509;29;20433;-78
2021/03/10 02:08:02;;;;;;;7.90;5.47;;;-5.50;99.90;;;;;;4774189;29;21031;-78
2021/03/10 02:10:52;;;;;;;6.40;4.78;;;-5.70;99.90;;;;;;4796851;29;20428;-78
2021/03/10 02:13:19;;;;;;;5.90;5.20;;;-5.70;99.90;;;;;;4776802;29;20512;-78
2021/03/10 02:16:19;;;;;;;6.30;5.32;;;-5.70;99.90;;;;;;4793103;29;20400;-77
2021/03/10 02:18:46;;;;;;;9.23;5.72;;;-5.70;99.90;;;;;;4803984;29;20436;-77
2021/03/10 02:21:24;;;;;;;7.25;5.40;;;-5.70;99.90;;;;;;4801960;29;20434;-78
2021/03/10 02:24:13;;;;;;;7.80;5.10;;;-5.60;99.90;;;;;;4797730;29;20424;-78
2021/03/10 02:26:59;;;;;;;7.07;5.00;;;-5.80;99.90;;;;;;4774355;29;20434;-78
2021/03/10 02:29:25;;;;;;;7.32;4.93;;;-5.80;99.90;;;;;;4802809;29;20425;-77
2021/03/10 02:31:50;;;;;;;8.43;5.72;;;-5.80;99.90;;;;;;4772791;29;20519;-78
2021/03/10 02:34:17;;;;;;;10.50;6.60;;;-5.70;99.90;;;;;;4789705;29;20429;-78
2021/03/10 02:36:46;;;;;;;8.75;5.75;;;-5.90;99.90;;;;;;4775794;29;20925;-78
2021/03/10 02:39:11;;;;;;;7.40;5.35;;;-5.90;99.90;;;;;;4773399;29;20464;-78
2021/03/10 02:41:37;;;;;;;7.28;5.50;;;-6.00;99.90;;;;;;4778639;29;20462;-78
2021/03/10 02:44:03;;;;;;;8.55;5.53;;;-6.00;99.90;;;;;;4791436;29;20421;-78
2021/03/10 02:46:29;;;;;;;8.15;5.95;;;-6.00;99.90;;;;;;4793617;29;20521;-78
2021/03/10 02:48:55;;;;;;;6.18;5.50;;;-6.00;99.90;;;;;;4770238;29;20423;-77
2021/03/10 02:51:21;;;;;;;7.97;6.43;;;-6.00;99.90;;;;;;4806890;29;20504;-78
2021/03/10 02:53:47;;;;;;;8.20;5.82;;;-6.10;99.90;;;;;;4787886;29;20459;-76
2021/03/10 02:56:13;;;;;;;9.27;6.18;;;-6.10;99.90;;;;;;4773390;29;20423;-78
2021/03/10 02:58:42;;;;;;;10.27;6.23;;;-6.10;99.90;;;;;;4803559;29;20429;-79
2021/03/10 03:01:11;;;;;;;8.60;6.05;;;-6.10;99.90;;;;;;4772922;29;20807;-79
2021/03/10 03:03:37;;;;;;;9.57;6.57;;;-6.10;99.90;;;;;;4766344;29;20412;-78
2021/03/10 03:06:03;;;;;;;10.07;6.72;;;-6.20;99.90;;;;;;4774201;29;20477;-78
2021/03/10 03:08:29;;;;;;;8.35;6.43;;;-6.20;99.90;;;;;;4793978;29;20410;-76
2021/03/10 03:10:54;;;;;;;8.95;6.53;;;-6.30;99.90;;;;;;4800861;29;20433;-77
2021/03/10 03:13:20;;;;;;;10.75;6.72;;;-6.30;99.90;;;;;;4780795;29;20453;-78
2021/03/10 03:15:52;;;;;;;12.02;7.05;;;-6.30;99.90;;;;;;4762755;29;20417;-77
2021/03/10 03:18:18;;;;;;;13.15;7.47;;;-6.30;99.90;;;;;;4788178;29;20436;-79
2021/03/10 03:20:43;;;;;;;11.03;7.40;;;-6.40;99.90;;;;;;4790857;29;20467;-78
2021/03/10 03:23:09;;;;;;;9.10;6.87;;;-6.40;99.90;;;;;;4807227;29;20930;-78
2021/03/10 03:25:38;;;;;;;10.87;6.80;;;-6.40;99.90;;;;;;4785976;29;20416;-78
2021/03/10 03:28:05;;;;;;;9.75;6.93;;;-6.40;99.90;;;;;;4772740;29;20495;-78
2021/03/10 03:30:35;;;;;;;10.98;6.63;;;-6.40;99.90;;;;;;4780050;29;20437;-79
2021/03/10 03:33:01;;;;;;;10.25;6.90;;;-6.20;99.90;;;;;;4780901;29;20431;-79
2021/03/10 03:35:27;;;;;;;9.80;7.30;;;-6.40;99.90;;;;;;4798075;29;20474;-77
2021/03/10 03:37:53;;;;;;;12.23;7.90;;;-6.40;99.90;;;;;;4779170;29;20422;-77
2021/03/10 03:40:21;;;;;;;10.40;7.50;;;-6.40;99.90;;;;;;4788621;29;20452;-78
2021/03/10 03:42:47;;;;;;;10.40;7.00;;;-6.50;99.90;;;;;;4781808;29;20422;-76
2021/03/10 03:45:15;;;;;;;9.70;7.43;;;-6.40;99.90;;;;;;4782128;29;20419;-77
2021/03/10 03:47:40;;;;;;;10.80;7.15;;;-6.50;99.90;;;;;;4791955;29;20423;-78
2021/03/10 03:50:08;;;;;;;12.48;8.23;;;-6.50;99.90;;;;;;4768219;29;20422;-78
2021/03/10 03:52:34;;;;;;;12.15;7.72;;;-6.50;99.90;;;;;;4775867;29;21196;-78
2021/03/10 03:54:59;;;;;;;10.60;7.43;;;-6.60;99.90;;;;;;4788016;29;20441;-78
2021/03/10 03:57:25;;;;;;;11.53;7.33;;;-6.60;99.90;;;;;;4758978;29;20490;-79
2021/03/10 03:59:51;;;;;;;11.77;7.63;;;-6.60;99.90;;;;;;4785509;29;20844;-78
2021/03/10 04:02:17;;;;;;;11.40;7.35;;;-6.60;99.90;;;;;;4773706;29;20414;-78
2021/03/10 04:04:42;;;;;;;10.70;7.28;;;-6.60;99.90;;;;;;4758827;29;20432;-78
2021/03/10 04:07:08;;;;;;;11.73;7.25;;;-6.60;99.90;;;;;;4814111;29;20431;-78
2021/03/10 04:09:34;;;;;;;13.63;7.50;;;-6.60;99.90;;;;;;4775178;29;20423;-78
2021/03/10 04:12:02;;;;;;;10.25;7.35;;;-6.60;99.90;;;;;;4784042;29;20778;-79
2021/03/10 04:14:28;;;;;;;10.88;7.55;;;-6.60;99.90;;;;;;4782646;29;20991;-79
2021/03/10 04:16:53;;;;;;;12.57;8.43;;;-6.50;99.90;;;;;;4792972;29;20424;-78
2021/03/10 04:19:19;;;;;;;11.13;8.80;;;-6.60;99.90;;;;;;4763408;29;20421;-78
2021/03/10 04:21:45;;;;;;;12.32;7.65;;;-6.70;99.90;;;;;;4786228;29;20462;-78
2021/03/10 04:24:10;;;;;;;11.52;8.38;;;-6.70;99.90;;;;;;4768807;29;20430;-78
2021/03/10 04:26:36;;;;;;;10.63;8.23;;;-6.70;99.90;;;;;;4796958;29;20503;-78
2021/03/10 04:29:02;;;;;;;11.30;7.63;;;-6.70;99.90;;;;;;4759088;29;20486;-78
2021/03/10 04:31:28;;;;;;;11.45;8.45;;;-6.80;99.90;;;;;;4772563;29;20466;-78
2021/03/10 04:33:54;;;;;;;12.18;7.82;;;-6.90;99.90;;;;;;4784756;29;20421;-77
2021/03/10 04:36:19;;;;;;;12.98;8.70;;;-6.80;99.90;;;;;;4789063;29;20433;-77
2021/03/10 04:38:45;;;;;;;13.05;7.75;;;-6.80;99.90;;;;;;4787170;29;20433;-78
2021/03/10 04:41:11;;;;;;;12.67;8.17;;;-6.80;99.90;;;;;;4792385;29;20418;-79
2021/03/10 04:43:36;;;;;;;13.90;8.60;;;-6.90;99.90;;;;;;4779033;29;20776;-79
2021/03/10 04:46:02;;;;;;;11.77;8.93;;;-6.90;99.90;;;;;;4791783;29;20421;-78
2021/03/10 04:48:28;;;;;;;12.53;8.33;;;-6.90;99.90;;;;;;4797975;29;20422;-78
2021/03/10 04:50:54;;;;;;;14.20;8.95;;;-6.90;99.90;;;;;;4759688;29;20413;-78
2021/03/10 04:53:19;;;;;;;14.75;9.55;;;-6.90;99.90;;;;;;4767759;29;20450;-78
2021/03/10 04:55:45;;;;;;;14.50;9.25;;;-6.90;99.90;;;;;;4809302;29;20421;-77
2021/03/10 04:58:11;;;;;;;15.25;8.43;;;-6.90;99.90;;;;;;4799743;29;20787;-78
2021/03/10 05:00:37;;;;;;;14.88;9.30;;;-6.80;99.90;;;;;;4796415;29;20945;-78
2021/03/10 05:03:03;;;;;;;17.63;9.27;;;-6.90;99.90;;;;;;4781482;29;20496;-78
2021/03/10 05:05:28;;;;;;;14.13;9.55;;;-6.90;99.90;;;;;;4773137;29;20397;-78
2021/03/10 05:07:54;;;;;;;14.82;8.63;;;-6.90;99.90;;;;;;4779515;29;20787;-78
2021/03/10 05:10:20;;;;;;;13.85;8.48;;;-6.90;99.90;;;;;;4793652;29;20421;-79
2021/03/10 05:12:46;;;;;;;13.00;9.50;;;-7.00;99.90;;;;;;4789494;29;20412;-78
2021/03/10 05:15:11;;;;;;;12.27;8.97;;;-7.00;99.90;;;;;;4801372;29;20431;-79
2021/03/10 05:17:37;;;;;;;14.80;9.13;;;-7.00;99.90;;;;;;4782270;29;20455;-79
2021/03/10 05:20:05;;;;;;;12.40;8.10;;;-7.00;99.90;;;;;;4793782;29;20431;-78
2021/03/10 05:22:31;;;;;;;15.43;9.05;;;-7.00;99.90;;;;;;4785664;29;20415;-79
2021/03/10 05:24:56;;;;;;;14.30;9.50;;;-7.00;99.90;;;;;;4775757;29;20429;-78
2021/03/10 05:27:22;;;;;;;17.27;9.68;;;-7.00;99.90;;;;;;4805918;29;20544;-77
2021/03/10 05:29:48;;;;;;;15.65;10.27;;;-7.00;99.90;;;;;;4789791;29;20431;-79
2021/03/10 05:32:14;;;;;;;20.17;11.70;;;-7.00;99.90;;;;;;4771590;29;20531;-79
2021/03/10 05:34:40;;;;;;;19.65;12.75;;;-7.00;99.90;;;;;;4761025;29;20419;-79
2021/03/10 05:37:06;;;;;;;26.58;14.23;;;-7.10;99.90;;;;;;4788745;29;20509;-80
2021/03/10 05:39:32;;;;;;;21.08;12.82;;;-7.00;99.90;;;;;;4775660;29;20807;-79
2021/03/10 05:41:58;;;;;;;19.05;11.95;;;-7.00;99.90;;;;;;4789633;29;20434;-79
2021/03/10 05:44:24;;;;;;;17.58;11.32;;;-7.00;99.90;;;;;;4766716;29;20433;-80
2021/03/10 05:46:49;;;;;;;15.30;10.85;;;-7.00;99.90;;;;;;4809599;29;20484;-81
2021/03/10 05:49:15;;;;;;;15.00;9.70;;;-7.00;99.90;;;;;;4796403;29;20465;-80
2021/03/10 05:51:41;;;;;;;14.98;10.05;;;-7.00;99.90;;;;;;4795896;29;20432;-80
2021/03/10 05:54:07;;;;;;;17.58;10.05;;;-6.80;99.90;;;;;;4815084;29;20459;-80
2021/03/10 05:56:33;;;;;;;17.42;10.48;;;-6.90;99.90;;;;;;4805670;29;20421;-80
2021/03/10 05:59:00;;;;;;;15.38;10.07;;;-6.70;99.90;;;;;;4805237;29;20427;-81
2021/03/10 06:01:26;;;;;;;18.98;9.88;;;-6.90;99.90;;;;;;4810289;29;20507;-81
2021/03/10 06:04:02;;;;;;;15.75;9.90;;;-6.90;99.90;;;;;;4809587;29;20838;-81
2021/03/10 06:06:34;;;;;;;17.17;10.80;;;-6.90;99.90;;;;;;4818789;29;20469;-81
2021/03/10 06:09:20;;;;;;;19.65;11.13;;;-6.90;99.90;;;;;;4784035;29;20444;-80
2021/03/10 06:11:55;;;;;;;15.90;11.18;;;-6.80;99.90;;;;;;4776657;29;20425;-80
2021/03/10 06:14:21;;;;;;;14.55;9.50;;;-6.80;99.90;;;;;;4814501;29;20434;-80
2021/03/10 06:16:47;;;;;;;15.63;10.07;;;-6.70;99.90;;;;;;4788045;29;20423;-80
2021/03/10 06:19:13;;;;;;;15.35;10.48;;;-6.70;99.90;;;;;;4786737;29;20457;-80
2021/03/10 06:21:51;;;;;;;16.67;10.55;;;-6.70;99.90;;;;;;4800131;29;20442;-80
2021/03/10 06:24:17;;;;;;;13.63;9.75;;;-6.70;99.90;;;;;;4783235;29;20445;-80
2021/03/10 06:26:51;;;;;;;18.30;10.83;;;-6.60;99.90;;;;;;4793431;29;20532;-80
2021/03/10 06:29:17;;;;;;;18.48;10.73;;;-6.50;99.90;;;;;;4781518;29;20419;-80
2021/03/10 06:31:43;;;;;;;20.43;11.27;;;-6.50;99.90;;;;;;4786890;29;20424;-80
2021/03/10 06:34:10;;;;;;;15.10;10.18;;;-6.40;99.90;;;;;;4789700;29;20438;-80
2021/03/10 06:36:40;;;;;;;18.67;11.32;;;-6.30;99.90;;;;;;4778516;29;21199;-80
2021/03/10 06:39:09;;;;;;;22.83;12.18;;;-6.30;99.90;;;;;;4757889;29;20431;-80
2021/03/10 06:41:38;;;;;;;19.65;12.85;;;-6.10;99.90;;;;;;4779294;29;20908;-80
2021/03/10 06:44:23;;;;;;;18.35;12.40;;;-6.10;99.90;;;;;;4795899;29;20435;-80
2021/03/10 06:46:50;;;;;;;19.73;12.20;;;-6.10;99.90;;;;;;4804721;29;20806;-80
2021/03/10 06:49:16;;;;;;;22.15;13.45;;;-6.00;99.90;;;;;;4781072;29;20450;-80
2021/03/10 06:52:08;;;;;;;20.45;13.77;;;-5.90;99.90;;;;;;4778716;29;20971;-78
2021/03/10 06:54:34;;;;;;;21.50;13.60;;;-5.90;99.90;;;;;;4788126;29;20415;-79
2021/03/10 06:57:03;;;;;;;22.55;14.30;;;-5.70;99.90;;;;;;4780109;29;20428;-79
2021/03/10 06:59:42;;;;;;;21.95;14.02;;;-5.50;99.90;;;;;;4786919;29;20424;-78
2021/03/10 07:02:13;;;;;;;24.17;14.65;;;-5.50;99.90;;;;;;4786343;29;20422;-80
2021/03/10 07:04:39;;;;;;;23.88;14.45;;;-5.30;99.90;;;;;;4769806;29;20438;-78
2021/03/10 07:07:05;;;;;;;24.45;15.05;;;-5.10;99.90;;;;;;4786343;29;20418;-78
2021/03/10 07:09:30;;;;;;;22.15;15.52;;;-5.10;99.90;;;;;;4786328;29;20409;-79
2021/03/10 07:11:56;;;;;;;24.75;15.85;;;-4.90;99.90;;;;;;4780941;29;20428;-79
2021/03/10 07:14:22;;;;;;;24.17;15.07;;;-4.90;99.90;;;;;;4781336;29;20430;-78
2021/03/10 07:16:48;;;;;;;25.90;14.75;;;-4.90;99.90;;;;;;4775188;29;20845;-78
2021/03/10 07:19:13;;;;;;;22.33;14.73;;;-4.80;99.90;;;;;;4767039;29;20437;-78
2021/03/10 07:21:51;;;;;;;25.05;15.07;;;-4.60;99.90;;;;;;4778582;29;20434;-77
2021/03/10 07:24:40;;;;;;;23.95;14.95;;;-4.70;99.90;;;;;;4791392;29;20418;-79
2021/03/10 07:27:07;;;;;;;23.08;14.70;;;-4.70;99.90;;;;;;4773811;29;20419;-78
2021/03/10 07:29:36;;;;;;;24.90;14.90;;;-4.60;99.90;;;;;;4779785;29;20413;-79
2021/03/10 07:32:04;;;;;;;21.35;14.23;;;-4.60;99.90;;;;;;4769551;29;20568;-79
2021/03/10 07:34:30;;;;;;;20.48;14.05;;;-4.50;99.90;;;;;;4791218;29;20428;-79
2021/03/10 07:36:55;;;;;;;22.08;13.98;;;-4.40;99.90;;;;;;4786757;29;20432;-78
2021/03/10 07:39:25;;;;;;;21.92;14.65;;;-4.30;99.90;;;;;;4790782;29;20427;-80
2021/03/10 07:41:51;;;;;;;23.85;15.18;;;-4.20;99.90;;;;;;4799978;29;20474;-79
2021/03/10 07:44:21;;;;;;;24.42;14.98;;;-4.10;99.90;;;;;;4771943;29;20919;-80
2021/03/10 07:46:48;;;;;;;22.10;14.45;;;-3.90;99.90;;;;;;4793580;29;20429;-79
2021/03/10 07:49:24;;;;;;;23.55;14.68;;;-3.60;99.90;;;;;;4791153;29;20706;-79
2021/03/10 07:51:50;;;;;;;21.10;13.95;;;-3.60;99.90;;;;;;4785957;29;20847;-79
2021/03/10 07:54:18;;;;;;;23.77;14.27;;;-3.40;99.90;;;;;;4777684;29;20505;-78
2021/03/10 07:56:44;;;;;;;19.50;13.48;;;-3.40;99.90;;;;;;4773145;29;20437;-79
2021/03/10 07:59:19;;;;;;;19.30;14.10;;;-3.30;99.90;;;;;;4779748;29;20486;-79
2021/03/10 08:01:46;;;;;;;22.15;15.20;;;-3.10;99.90;;;;;;4789981;29;20472;-78
2021/03/10 08:04:18;;;;;;;19.58;14.07;;;-2.90;99.90;;;;;;4783712;29;20426;-79
2021/03/10 08:06:52;;;;;;;20.65;14.88;;;-2.80;99.90;;;;;;4777977;29;20419;-79
2021/03/10 08:09:18;;;;;;;23.03;14.67;;;-2.60;99.90;;;;;;4763727;29;20589;-79
2021/03/10 08:11:45;;;;;;;24.58;15.43;;;-2.50;99.90;;;;;;4794048;29;20429;-79
2021/03/10 08:14:12;;;;;;;23.00;14.70;;;-2.30;99.90;;;;;;4791856;29;20421;-78
2021/03/10 08:16:48;;;;;;;24.67;14.95;;;-2.20;99.90;;;;;;4789045;29;20919;-80
2021/03/10 08:19:18;;;;;;;20.67;14.20;;;-2.00;99.90;;;;;;4777255;29;20457;-78
2021/03/10 08:21:52;;;;;;;22.70;13.98;;;-1.90;99.90;;;;;;4774579;29;20414;-78
2021/03/10 08:24:18;;;;;;;21.67;14.55;;;-1.70;99.90;;;;;;4769054;29;20423;-79
2021/03/10 08:26:48;;;;;;;18.67;13.37;;;-1.60;99.90;;;;;;4763240;29;20490;-79
2021/03/10 08:29:13;;;;;;;18.65;13.40;;;-1.50;99.90;;;;;;4767615;29;20913;-79
2021/03/10 08:31:43;;;;;;;24.98;13.55;;;-1.30;99.90;;;;;;4782914;29;20432;-79
2021/03/10 08:34:09;;;;;;;23.85;13.88;;;-1.30;99.90;;;;;;4784174;29;20434;-79
2021/03/10 08:36:35;;;;;;;18.42;12.80;;;-1.10;99.90;;;;;;4785689;29;21158;-78
2021/03/10 08:39:11;;;;;;;23.95;13.27;;;-1.00;99.90;;;;;;4777567;29;20920;-79
2021/03/10 08:41:45;;;;;;;25.03;14.67;;;-0.90;99.90;;;;;;4769351;29;20434;-79
2021/03/10 08:44:11;;;;;;;22.80;15.43;;;-0.70;99.90;;;;;;4781682;29;20418;-79
2021/03/10 08:46:46;;;;;;;19.77;13.88;;;-0.60;99.90;;;;;;4788301;29;20988;-79
2021/03/10 08:49:21;;;;;;;20.27;13.98;;;-0.40;99.90;;;;;;4787638;29;20454;-80
2021/03/10 08:51:47;;;;;;;21.48;13.85;;;-0.30;99.90;;;;;;4794366;29;20430;-79
2021/03/10 08:54:13;;;;;;;21.00;13.98;;;-0.10;99.90;;;;;;4774409;29;20441;-79
2021/03/10 08:56:49;;;;;;;24.67;13.13;;;0.00;99.90;;;;;;4774372;29;20432;-79
2021/03/10 08:59:15;;;;;;;16.17;11.80;;;0.10;99.90;;;;;;4788430;29;20428;-80
2021/03/10 09:01:48;;;;;;;16.83;11.37;;;0.30;99.90;;;;;;4774283;29;20475;-81
2021/03/10 09:04:24;;;;;;;14.57;11.17;;;0.40;99.90;;;;;;4791904;29;20419;-82
2021/03/10 09:06:51;;;;;;;13.85;10.30;;;0.60;99.90;;;;;;4792917;29;20427;-83
2021/03/10 09:09:17;;;;;;;17.90;11.02;;;0.70;99.90;;;;;;4777369;29;20465;-81
2021/03/10 09:11:43;;;;;;;11.63;9.20;;;0.80;99.90;;;;;;4788819;29;20772;-81
2021/03/10 09:14:30;;;;;;;14.18;10.05;;;1.00;99.90;;;;;;4788383;29;20539;-81
2021/03/10 09:17:01;;;;;;;16.02;10.43;;;1.10;99.90;;;;;;4789146;29;20854;-82
2021/03/10 09:19:40;;;;;;;16.67;10.60;;;1.40;99.90;;;;;;4789346;29;20521;-81
2021/03/10 09:22:13;;;;;;;16.60;10.70;;;1.30;99.90;;;;;;4793739;29;20897;-82
2021/03/10 09:24:47;;;;;;;13.35;9.98;;;1.60;99.90;;;;;;4777052;29;20410;-81
2021/03/10 09:27:28;;;;;;;15.50;9.50;;;1.60;99.90;;;;;;4791082;29;20413;-81
2021/03/10 09:29:59;;;;;;;13.80;10.00;;;1.70;99.90;;;;;;4791354;29;21110;-83
2021/03/10 09:32:25;;;;;;;13.20;8.95;;;1.90;99.90;;;;;;4792341;29;20412;-82
2021/03/10 09:34:53;;;;;;;10.68;8.25;;;2.00;99.90;;;;;;4779818;29;20406;-81
2021/03/10 09:37:25;;;;;;;10.77;8.03;;;2.20;99.90;;;;;;4779789;29;20406;-81
2021/03/10 09:39:52;;;;;;;11.10;8.23;;;2.30;99.90;;;;;;4795154;29;20452;-81
2021/03/10 09:42:28;;;;;;;8.75;7.30;;;2.50;99.90;;;;;;4796002;29;20411;-81
2021/03/10 09:45:00;;;;;;;10.40;8.07;;;2.60;99.90;;;;;;4796625;29;20453;-81
2021/03/10 09:47:47;;;;;;;14.17;8.67;;;2.80;99.90;;;;;;4782351;29;20430;-81
2021/03/10 09:50:13;;;;;;;11.20;8.73;;;2.90;99.90;;;;;;4796045;29;20487;-82
2021/03/10 09:52:41;;;;;;;11.10;8.98;;;3.00;99.90;;;;;;4829841;29;20484;-83
2021/03/10 09:55:18;;;;;;;10.90;7.90;;;3.10;99.90;;;;;;4813873;29;20404;-82
2021/03/10 09:57:47;;;;;;;10.80;8.13;;;3.20;99.90;;;;;;4809717;29;20408;-81
2021/03/10 10:00:19;;;;;;;14.57;7.50;;;3.40;99.90;;;;;;4807483;29;20423;-80
2021/03/10 10:02:48;;;;;;;9.18;7.22;;;3.50;99.90;;;;;;4807846;29;20448;-82
2021/03/10 10:05:23;;;;;;;12.93;7.97;;;3.70;99.90;;;;;;4798863;29;20419;-85
2021/03/10 10:07:50;;;;;;;10.05;7.22;;;3.80;99.90;;;;;;4795244;29;20420;-82
2021/03/10 10:10:16;;;;;;;9.82;7.18;;;4.00;99.90;;;;;;4790577;29;20447;-81
2021/03/10 10:12:50;;;;;;;7.88;6.60;;;4.10;99.90;;;;;;4780811;29;20423;-81
2021/03/10 10:15:24;;;;;;;8.00;6.90;;;4.20;99.90;;;;;;4808743;29;20411;-81
2021/03/10 10:17:56;;;;;;;9.55;7.07;;;4.30;99.90;;;;;;4781177;29;20424;-81
2021/03/10 10:20:24;;;;;;;9.83;7.20;;;4.50;99.90;;;;;;4785049;29;20512;-82
2021/03/10 10:22:51;;;;;;;9.65;7.32;;;4.60;99.90;;;;;;4806818;29;20460;-81
2021/03/10 10:25:17;;;;;;;9.32;6.63;;;4.80;99.90;;;;;;4762740;29;20437;-86
2021/03/10 10:27:46;;;;;;;8.60;6.38;;;4.90;99.90;;;;;;4779172;29;20430;-82
2021/03/10 10:30:18;;;;;;;8.57;6.55;;;5.10;99.90;;;;;;4777036;29;20448;-82
2021/03/10 10:32:45;;;;;;;9.63;6.97;;;5.20;99.90;;;;;;4778702;29;20410;-84
2021/03/10 10:35:12;;;;;;;7.40;6.00;;;5.40;99.90;;;;;;4764455;29;20755;-81
2021/03/10 10:37:38;;;;;;;9.48;7.03;;;5.60;99.90;;;;;;4779285;29;20453;-84
2021/03/10 10:40:18;;;;;;;8.32;6.10;;;5.90;99.90;;;;;;4774493;29;20428;-87
2021/03/10 10:42:53;;;;;;;6.07;4.70;;;6.10;99.90;;;;;;4778339;29;20470;-87
2021/03/10 10:45:19;;;;;;;6.68;5.18;;;6.40;97.40;;;;;;4770250;29;20439;-82
2021/03/10 10:47:45;;;;;;;4.27;3.07;;;6.70;96.50;;;;;;4782193;29;20478;-85
2021/03/10 10:50:17;;;;;;;4.40;3.67;;;6.90;86.80;;;;;;4769887;29;20421;-83
2021/03/10 10:52:48;;;;;;;7.80;4.05;;;7.10;89.20;;;;;;4798093;29;20419;-82
2021/03/10 10:55:17;;;;;;;6.30;5.00;;;7.40;85.50;;;;;;4812086;29;20423;-82
2021/03/10 10:57:45;;;;;;;5.68;5.07;;;7.80;87.10;;;;;;4799956;29;20423;-84
2021/03/10 11:00:18;;;;;;;6.07;4.57;;;8.20;84.70;;;;;;4784166;29;20532;-85
2021/03/10 11:02:45;;;;;;;7.10;4.85;;;8.40;77.50;;;;;;4787085;29;20412;-83
2021/03/10 11:05:16;;;;;;;4.68;3.72;;;8.70;72.70;;;;;;4813985;29;20423;-84
2021/03/10 11:07:43;;;;;;;4.53;3.53;;;8.70;67.60;;;;;;4799835;29;20497;-82
2021/03/10 11:10:10;;;;;;;5.10;3.65;;;9.00;66.20;;;;;;4785423;29;20500;-83
2021/03/10 11:12:42;;;;;;;3.45;3.15;;;9.00;58.10;;;;;;4787815;29;20424;-84
2021/03/10 11:15:09;;;;;;;3.78;3.35;;;9.20;55.80;;;;;;4785500;29;20953;-82
2021/03/10 11:17:44;;;;;;;5.00;3.17;;;9.10;50.80;;;;;;4802453;29;20424;-86
2021/03/10 11:20:14;;;;;;;3.50;3.20;;;9.30;52.90;;;;;;4785906;29;20982;-82
2021/03/10 11:22:39;;;;;;;4.20;2.95;;;9.50;50.00;;;;;;4814825;29;20949;-85
2021/03/10 11:25:08;;;;;;;3.33;2.72;;;9.70;50.00;;;;;;4784856;29;20412;-83
2021/03/10 11:27:33;;;;;;;5.60;3.50;;;9.60;43.60;;;;;;4799446;29;20400;-84
2021/03/10 11:29:59;;;;;;;5.27;3.50;;;9.50;42.00;;;;;;4810089;29;20454;-88
2021/03/10 11:32:25;;;;;;;3.60;3.30;;;9.70;46.20;;;;;;4800958;29;20404;-88
2021/03/10 11:34:51;;;;;;;4.63;3.30;;;10.10;48.40;;;;;;4796393;29;20451;-84
2021/03/10 11:37:19;;;;;;;3.60;3.28;;;10.60;46.50;;;;;;4785256;29;20464;-83
2021/03/10 11:39:47;;;;;;;4.20;3.35;;;11.10;47.70;;;;;;4800209;29;20424;-81
2021/03/10 11:42:13;;;;;;;3.95;3.38;;;11.50;47.20;;;;;;4800699;29;20440;-83
2021/03/10 11:44:39;;;;;;;4.83;3.43;;;11.70;44.90;;;;;;4800730;29;20423;-81
2021/03/10 11:47:05;;;;;;;3.50;3.20;;;11.80;42.80;;;;;;4784171;29;20782;-81
2021/03/10 11:49:30;;;;;;;5.43;3.92;;;11.90;47.30;;;;;;4782569;29;20412;-84
2021/03/10 11:51:56;;;;;;;3.67;3.27;;;12.00;44.20;;;;;;4798306;29;20416;-88
2021/03/10 11:54:23;;;;;;;3.65;3.30;;;11.90;40.00;;;;;;4784547;29;20408;-81
2021/03/10 11:56:49;;;;;;;4.55;3.13;;;11.90;43.30;;;;;;4793212;29;20434;-81
2021/03/10 11:59:15;;;;;;;4.55;3.22;;;12.40;44.50;;;;;;4794750;29;20504;-86
2021/03/10 12:01:51;;;;;;;5.95;3.28;;;12.80;42.00;;;;;;4783520;29;20828;-83
2021/03/10 12:04:22;;;;;;;5.05;3.40;;;12.80;37.80;;;;;;4765211;29;20793;-84
2021/03/10 12:06:51;;;;;;;4.00;3.40;;;12.30;36.70;;;;;;4784926;29;20450;-82
2021/03/10 12:09:18;;;;;;;4.97;3.33;;;12.20;39.50;;;;;;4797632;29;20546;-84
2021/03/10 12:11:45;;;;;;;3.42;3.13;;;12.40;39.80;;;;;;4786804;29;20976;-84
2021/03/10 12:14:11;;;;;;;5.13;3.60;;;12.80;38.70;;;;;;4786541;29;20944;-81
2021/03/10 12:16:37;;;;;;;4.55;3.55;;;13.10;39.60;;;;;;4797460;29;20418;-80
2021/03/10 12:19:03;;;;;;;4.15;3.63;;;13.20;35.70;;;;;;4813332;29;20451;-81
2021/03/10 12:21:28;;;;;;;4.57;4.00;;;13.20;38.10;;;;;;4812001;29;20423;-79
2021/03/10 12:23:55;;;;;;;4.18;3.47;;;13.30;39.80;;;;;;4779458;29;20401;-82
2021/03/10 12:26:21;;;;;;;4.85;3.50;;;13.50;39.00;;;;;;4779852;29;20414;-79
2021/03/10 12:28:47;;;;;;;3.40;3.10;;;13.60;39.30;;;;;;4775897;29;20834;-80
2021/03/10 12:31:12;;;;;;;4.28;3.45;;;13.70;40.10;;;;;;4772231;29;20415;-80
2021/03/10 12:33:38;;;;;;;3.73;3.10;;;13.30;35.60;;;;;;4818968;29;20431;-87
2021/03/10 12:36:05;;;;;;;3.50;3.20;;;12.60;35.40;;;;;;4802075;29;21009;-81
2021/03/10 12:38:30;;;;;;;3.70;3.13;;;12.70;35.90;;;;;;4794534;29;20426;-84
2021/03/10 12:40:56;;;;;;;2.85;2.65;;;12.70;36.40;;;;;;4764993;29;20423;-83
2021/03/10 12:43:22;;;;;;;3.15;2.58;;;12.60;34.60;;;;;;4788778;29;20915;-81
2021/03/10 12:45:48;;;;;;;2.90;2.60;;;13.20;36.00;;;;;;4786244;29;20408;-80